EKYT/AAL METAR and TAF weather

Enter ICAO airport designator
Station Type Date Time Source
EKYT METAR 2023/01/30 11:20 UTC NOAA

EKYT 301120Z AUTO 29020KT 9999 NCD 06/02 Q0994


Station Type Date Time Source
EKYT Decoded METAR 2023/01/30 11:20 UTC NOAA

Aalborg, Denmark (EKYT) 57-06N 009-51E 13M
Jan 30, 2023 - 06:20 AM EST / 2023.01.30 1120 UTC
Wind: from the WNW (290 degrees) at 23 MPH (20 KT):0
Visibility: greater than 7 mile(s):0
Temperature: 42 F (6 C)
Dew Point: 35 F (2 C)
Relative Humidity: 75%
Pressure (altimeter): 29.35 in. Hg (0994 hPa)
ob: EKYT 301120Z AUTO 29020KT 9999 NCD 06/02 Q0994
cycle: 11

Station Type Date Time Source
EKYT TAF 2023/01/30 12:12 UTC NOAA

TAF EKYT 301103Z 3012/3112 28016KT 9999 SCT030
TEMPO 3012/3018 30025G38KT
TEMPO 3018/3024 30018G30KT
BECMG 3103/3106 24010KT
BECMG 3106/3109 3000 RADZ BKN006
BECMG 3109/3112 28020KT 9999 -SHRA BKN020

Example: see airport list